createdAt,value
2019-02-10T00:01:53.773Z,2.31
2019-02-10T00:04:25.030Z,2.31
2019-02-10T00:06:58.826Z,2.29
2019-02-10T00:09:34.432Z,2.27
2019-02-10T00:12:08.157Z,2.19
2019-02-10T00:14:40.360Z,2.13
2019-02-10T00:17:13.680Z,2.04
2019-02-10T00:19:46.852Z,2.00
2019-02-10T00:22:20.741Z,2.00
2019-02-10T00:24:53.946Z,1.96
2019-02-10T00:27:27.941Z,1.93
2019-02-10T00:29:59.206Z,1.89
2019-02-10T00:32:35.511Z,1.86
2019-02-10T00:35:06.966Z,1.82
2019-02-10T00:37:41.277Z,1.80
2019-02-10T00:40:13.912Z,1.76
2019-02-10T00:42:46.983Z,1.77
2019-02-10T00:45:19.876Z,1.77
2019-02-10T00:47:51.268Z,1.73
2019-02-10T00:50:25.337Z,1.69
2019-02-10T00:52:58.946Z,1.64
2019-02-10T00:55:33.022Z,1.60
2019-02-10T00:58:07.041Z,1.57
2019-02-10T01:00:38.309Z,1.49
2019-02-10T01:03:12.758Z,1.39
2019-02-10T01:05:45.937Z,1.16
2019-02-10T01:08:19.934Z,1.29
2019-02-10T01:10:51.621Z,1.21
2019-02-10T01:13:25.278Z,1.25
2019-02-10T01:15:58.185Z,1.23
2019-02-10T01:18:31.696Z,1.21
2019-02-10T01:21:03.771Z,1.15
2019-02-10T01:23:35.188Z,1.14
2019-02-10T01:26:08.174Z,1.08
2019-02-10T01:28:40.651Z,1.07
2019-02-10T01:31:13.148Z,1.07
2019-02-10T01:33:44.411Z,1.03
2019-02-10T01:36:18.196Z,0.99
2019-02-10T01:38:51.161Z,0.95
2019-02-10T01:41:23.376Z,0.92
2019-02-10T01:43:57.253Z,0.92
2019-02-10T01:46:28.524Z,0.91
2019-02-10T01:49:02.320Z,0.86
2019-02-10T01:51:36.301Z,0.80
2019-02-10T01:54:10.346Z,0.73
2019-02-10T01:56:46.927Z,0.66
2019-02-10T01:59:18.779Z,0.67
2019-02-10T02:01:52.385Z,0.64
2019-02-10T02:04:24.483Z,0.61
2019-02-10T02:06:57.805Z,0.52
2019-02-10T02:09:30.463Z,0.49
2019-02-10T02:12:04.524Z,0.47
2019-02-10T02:14:38.473Z,0.47
2019-02-10T02:17:09.835Z,0.44
2019-02-10T02:19:41.113Z,0.40
2019-02-10T02:22:14.527Z,0.41
2019-02-10T02:24:48.532Z,0.42
2019-02-10T02:27:22.618Z,0.41
2019-02-10T02:29:56.564Z,0.39
2019-02-10T02:32:30.357Z,0.37
2019-02-10T02:35:01.650Z,0.37
2019-02-10T02:37:35.713Z,0.36
2019-02-10T02:40:11.229Z,0.36
2019-02-10T02:42:43.442Z,0.37
2019-02-10T02:45:14.774Z,0.38
2019-02-10T02:47:46.479Z,0.37
2019-02-10T02:50:18.490Z,0.34
2019-02-10T02:52:52.505Z,0.37
2019-02-10T02:55:23.772Z,0.38
2019-02-10T02:57:59.249Z,0.41
2019-02-10T03:00:31.683Z,0.41
2019-02-10T03:03:06.198Z,0.43
2019-02-10T03:05:39.672Z,0.43
2019-02-10T03:08:13.530Z,0.35
2019-02-10T03:10:45.856Z,0.34
2019-02-10T03:13:18.655Z,0.42
2019-02-10T03:15:51.768Z,0.54
2019-02-10T03:18:25.758Z,0.63
2019-02-10T03:20:59.851Z,0.66
2019-02-10T03:23:33.783Z,0.69
2019-02-10T03:26:05.167Z,0.71
2019-02-10T03:28:36.877Z,0.81
2019-02-10T03:31:09.729Z,0.80
2019-02-10T03:33:41.044Z,0.76
2019-02-10T03:36:14.814Z,0.76
2019-02-10T03:38:46.673Z,0.73
2019-02-10T03:41:19.858Z,0.70
2019-02-10T03:43:53.881Z,0.66
2019-02-10T03:46:29.400Z,0.65
2019-02-10T03:49:01.802Z,0.62
2019-02-10T03:51:36.062Z,0.59
2019-02-10T03:54:07.786Z,0.55
2019-02-10T03:56:40.604Z,0.50
2019-02-10T03:59:13.010Z,0.45
2019-02-10T04:01:46.933Z,0.44
2019-02-10T04:04:19.609Z,0.37
2019-02-10T04:06:50.928Z,0.26
2019-02-10T04:09:26.412Z,0.14
2019-02-10T04:11:58.898Z,0.12
2019-02-10T04:14:30.179Z,0.10
2019-02-10T04:17:01.460Z,0.10
2019-02-10T04:19:33.854Z,0.14
2019-02-10T04:22:09.544Z,0.18
2019-02-10T04:24:40.987Z,0.16
2019-02-10T04:27:13.625Z,0.15
2019-02-10T04:29:47.036Z,0.21
2019-02-10T04:32:22.567Z,0.29
2019-02-10T04:34:54.947Z,0.44
2019-02-10T04:37:30.571Z,0.81
2019-02-10T04:40:02.990Z,0.90
2019-02-10T04:42:34.510Z,0.74
2019-02-10T04:45:06.167Z,0.63
2019-02-10T04:47:40.445Z,0.54
2019-02-10T04:50:13.142Z,0.49
2019-02-10T04:52:48.629Z,0.42
2019-02-10T04:55:21.109Z,0.35
2019-02-10T04:57:53.059Z,0.30
2019-02-10T05:00:26.073Z,0.31
2019-02-10T05:02:57.465Z,0.26
2019-02-10T05:05:28.791Z,0.22
2019-02-10T05:08:02.127Z,0.15
2019-02-10T05:10:34.199Z,0.13
2019-02-10T05:13:07.375Z,0.13
2019-02-10T05:15:40.086Z,0.08
2019-02-10T05:18:15.721Z,0.05
2019-02-10T05:20:48.195Z,0.04
2019-02-10T05:23:19.439Z,0.04
2019-02-10T05:25:50.760Z,0.00
2019-02-10T05:28:22.496Z,-0.02
2019-02-10T05:30:54.121Z,-0.05
2019-02-10T05:33:28.307Z,-0.06
2019-02-10T05:36:02.386Z,-0.08
2019-02-10T05:38:35.395Z,-0.07
2019-02-10T05:41:07.496Z,-0.08
2019-02-10T05:43:41.078Z,-0.06
2019-02-10T05:46:14.381Z,-0.04
2019-02-10T05:48:47.420Z,-0.03
2019-02-10T05:51:19.336Z,-0.02
2019-02-10T05:53:53.438Z,-0.03
2019-02-10T05:56:27.348Z,-0.04
2019-02-10T05:59:01.374Z,-0.06
2019-02-10T06:02:05.233Z,-0.10
2019-02-10T06:04:41.853Z,-0.15
2019-02-10T06:07:16.642Z,-0.18
2019-02-10T06:09:50.388Z,-0.28
2019-02-10T06:12:24.412Z,-0.26
2019-02-10T06:14:55.676Z,-0.29
2019-02-10T06:17:29.443Z,-0.30
2019-02-10T06:20:05.238Z,-0.31
2019-02-10T06:22:37.500Z,-0.32
2019-02-10T06:25:12.125Z,-0.34
2019-02-10T06:27:44.473Z,-0.91
2019-02-10T06:30:16.301Z,-0.31
2019-02-10T06:32:47.578Z,-0.27
2019-02-10T06:35:20.638Z,-0.21
2019-02-10T06:37:56.175Z,-0.21
2019-02-10T06:40:29.601Z,-0.20
2019-02-10T06:43:03.664Z,-0.17
2019-02-10T06:45:37.342Z,-0.18
2019-02-10T06:48:08.623Z,-0.11
2019-02-10T06:50:40.896Z,-0.06
2019-02-10T06:53:12.530Z,-0.02
2019-02-10T06:55:44.835Z,0.03
2019-02-10T06:58:17.678Z,0.07
2019-02-10T07:00:59.296Z,0.14
2019-02-10T07:03:55.355Z,0.20
2019-02-10T07:06:26.847Z,0.26
2019-02-10T07:09:02.445Z,0.33
2019-02-10T07:11:34.668Z,0.41
2019-02-10T07:14:18.443Z,0.45
2019-02-10T07:17:23.314Z,0.55
2019-02-10T07:20:52.217Z,0.62
2019-02-10T07:24:07.224Z,0.67
2019-02-10T07:26:55.145Z,0.69
2019-02-10T07:29:58.389Z,0.71
2019-02-10T07:32:38.874Z,0.71
2019-02-10T07:35:31.307Z,0.70
2019-02-10T07:38:17.016Z,0.78
2019-02-10T07:41:30.767Z,0.90
2019-02-10T07:44:56.993Z,0.98
2019-02-10T07:47:55.793Z,1.05
2019-02-10T07:51:17.877Z,1.11
2019-02-10T07:54:56.302Z,1.22
2019-02-10T07:58:02.501Z,1.38
2019-02-10T08:01:11.548Z,1.55
2019-02-10T08:04:27.685Z,1.68
2019-02-10T08:07:38.916Z,1.89
2019-02-10T08:10:29.411Z,2.04
2019-02-10T08:13:41.007Z,2.09
2019-02-10T08:16:39.177Z,2.25
2019-02-10T08:19:23.215Z,2.34
2019-02-10T08:22:51.400Z,2.25
2019-02-10T08:25:53.481Z,2.56
2019-02-10T08:29:01.854Z,2.86
2019-02-10T08:32:31.561Z,3.16
2019-02-10T08:35:44.331Z,3.43
2019-02-10T08:38:59.217Z,3.79
2019-02-10T08:42:22.084Z,3.96
2019-02-10T08:45:37.939Z,3.90
2019-02-10T08:48:51.594Z,4.00
2019-02-10T08:52:19.766Z,4.13
2019-02-10T08:54:53.077Z,4.34
2019-02-10T08:57:26.908Z,4.21
2019-02-10T08:59:58.174Z,4.20
2019-02-10T09:02:31.628Z,4.25
2019-02-10T09:05:05.853Z,4.49
2019-02-10T09:07:40.830Z,4.44
2019-02-10T09:10:13.413Z,4.40
2019-02-10T09:12:47.138Z,4.47
2019-02-10T09:15:18.923Z,4.60
2019-02-10T09:17:53.766Z,4.54
2019-02-10T09:20:27.669Z,4.71
2019-02-10T09:22:59.184Z,4.60
2019-02-10T09:25:33.386Z,4.68
2019-02-10T09:28:07.016Z,4.87
2019-02-10T09:30:42.037Z,5.05
2019-02-10T09:33:14.402Z,5.33
2019-02-10T09:35:47.407Z,5.53
2019-02-10T09:38:19.383Z,5.83
2019-02-10T09:40:52.448Z,5.59
2019-02-10T09:43:26.467Z,5.72
2019-02-10T09:46:02.115Z,5.84
2019-02-10T09:48:33.400Z,6.03
2019-02-10T09:51:05.430Z,5.92
2019-02-10T09:53:38.317Z,6.16
2019-02-10T09:56:10.690Z,6.10
2019-02-10T09:58:44.505Z,6.13
2019-02-10T10:01:16.546Z,6.15
2019-02-10T10:03:50.107Z,6.69
2019-02-10T10:06:22.764Z,6.63
2019-02-10T10:08:55.525Z,6.73
2019-02-10T10:11:28.506Z,6.97
2019-02-10T10:14:04.228Z,7.05
2019-02-10T10:16:36.560Z,6.92
2019-02-10T10:19:12.525Z,6.69
2019-02-10T10:21:44.542Z,5.89
2019-02-10T10:24:17.648Z,6.47
2019-02-10T10:26:51.510Z,6.42
2019-02-10T10:29:24.543Z,6.53
2019-02-10T10:31:55.829Z,6.98
2019-02-10T10:34:29.753Z,6.96
2019-02-10T10:37:05.352Z,6.80
2019-02-10T10:39:39.563Z,6.94
2019-02-10T10:42:13.743Z,6.69
2019-02-10T10:44:44.997Z,6.68
2019-02-10T10:47:18.829Z,6.48
2019-02-10T10:49:51.717Z,6.48
2019-02-10T10:52:24.730Z,6.44
2019-02-10T10:54:56.762Z,6.70
2019-02-10T10:57:29.745Z,6.80
2019-02-10T11:00:02.926Z,6.60
2019-02-10T11:02:34.859Z,6.20
2019-02-10T11:05:09.417Z,6.37
2019-02-10T11:07:41.239Z,6.39
2019-02-10T11:10:13.338Z,6.42
2019-02-10T11:12:44.729Z,6.67
2019-02-10T11:15:18.141Z,6.70
2019-02-10T11:17:49.401Z,6.39
2019-02-10T11:20:22.335Z,6.50
2019-02-10T11:22:53.972Z,6.44
2019-02-10T11:25:25.750Z,6.40
2019-02-10T11:27:57.046Z,6.53
2019-02-10T11:30:30.885Z,6.53
2019-02-10T11:33:03.820Z,6.86
2019-02-10T11:35:38.036Z,7.15
2019-02-10T11:38:11.920Z,6.79
2019-02-10T11:40:44.933Z,6.98
2019-02-10T11:43:16.458Z,6.87
2019-02-10T11:45:49.805Z,6.75
2019-02-10T11:48:21.081Z,6.57
2019-02-10T11:50:55.046Z,6.71
2019-02-10T11:53:28.960Z,6.50
2019-02-10T11:56:01.889Z,6.38
2019-02-10T11:58:35.138Z,6.23
2019-02-10T12:01:06.414Z,6.45
2019-02-10T12:03:37.733Z,6.40
2019-02-10T12:06:12.584Z,6.53
2019-02-10T12:08:44.961Z,6.78
2019-02-10T12:11:16.244Z,6.74
2019-02-10T12:13:47.891Z,6.43
2019-02-10T12:16:20.962Z,6.42
2019-02-10T12:18:54.309Z,6.42
2019-02-10T12:21:27.128Z,6.45
2019-02-10T12:23:58.671Z,6.68
2019-02-10T12:26:29.937Z,6.78
2019-02-10T12:29:03.070Z,6.77
2019-02-10T12:31:37.605Z,6.89
2019-02-10T12:34:11.133Z,7.05
2019-02-10T12:36:45.041Z,6.90
2019-02-10T12:39:18.211Z,7.04
2019-02-10T12:41:49.532Z,7.10
2019-02-10T12:44:20.799Z,7.31
2019-02-10T12:46:54.210Z,7.41
2019-02-10T12:49:27.069Z,7.47
2019-02-10T12:51:58.355Z,7.46
2019-02-10T12:54:31.155Z,7.59
2019-02-10T12:57:03.220Z,7.25
2019-02-10T12:59:38.787Z,7.31
2019-02-10T13:02:10.683Z,7.39
2019-02-10T13:04:41.944Z,7.41
2019-02-10T13:07:15.281Z,7.46
2019-02-10T13:09:46.662Z,7.26
2019-02-10T13:12:20.327Z,7.08
2019-02-10T13:14:55.035Z,6.89
2019-02-10T13:17:29.789Z,6.52
2019-02-10T13:20:04.009Z,6.51
2019-02-10T13:22:35.346Z,6.56
2019-02-10T13:25:11.410Z,6.53
2019-02-10T13:27:46.119Z,6.38
2019-02-10T13:30:18.489Z,6.34
2019-02-10T13:32:50.657Z,6.32
2019-02-10T13:35:24.503Z,6.22
2019-02-10T13:37:58.394Z,6.17
2019-02-10T13:40:31.402Z,6.22
2019-02-10T13:43:05.410Z,6.22
2019-02-10T13:45:39.505Z,6.20
2019-02-10T13:48:10.779Z,6.16
2019-02-10T13:50:42.080Z,6.27
2019-02-10T13:53:15.234Z,6.28
2019-02-10T13:55:48.548Z,6.29
2019-02-10T13:58:24.078Z,6.12
2019-02-10T14:00:55.474Z,6.15
2019-02-10T14:03:29.471Z,6.06
2019-02-10T14:06:01.121Z,6.09
2019-02-10T14:08:34.556Z,6.00
2019-02-10T14:11:08.582Z,5.93
2019-02-10T14:13:40.605Z,5.93
2019-02-10T14:16:13.642Z,6.01
2019-02-10T14:18:46.595Z,5.91
2019-02-10T14:21:20.498Z,5.92
2019-02-10T14:23:51.963Z,5.92
2019-02-10T14:26:23.263Z,5.73
2019-02-10T14:28:56.689Z,5.80
2019-02-10T14:31:30.594Z,5.65
2019-02-10T14:34:04.561Z,5.69
2019-02-10T14:36:37.719Z,5.73
2019-02-10T14:39:11.609Z,5.53
2019-02-10T14:41:45.699Z,5.42
2019-02-10T14:44:18.713Z,5.35
2019-02-10T14:46:52.666Z,5.24
2019-02-10T14:49:28.321Z,5.17
2019-02-10T14:52:00.766Z,5.09
2019-02-10T14:54:35.585Z,5.08
2019-02-10T14:57:07.919Z,5.05
2019-02-10T14:59:41.565Z,4.96
2019-02-10T15:02:12.896Z,4.87
2019-02-10T15:04:44.832Z,4.82
2019-02-10T15:07:25.307Z,4.67
2019-02-10T15:09:50.833Z,4.54
2019-02-10T15:12:22.164Z,4.49
2019-02-10T15:14:55.870Z,4.46
2019-02-10T15:17:27.163Z,4.28
2019-02-10T15:20:00.816Z,4.14
2019-02-10T15:22:33.801Z,4.05
2019-02-10T15:25:07.244Z,4.02
2019-02-10T15:27:38.871Z,3.97
2019-02-10T15:30:12.562Z,3.87
2019-02-10T15:32:45.847Z,3.86
2019-02-10T15:35:19.879Z,3.80
2019-02-10T15:37:52.853Z,3.75
2019-02-10T15:40:24.913Z,3.74
2019-02-10T15:42:58.831Z,3.73
2019-02-10T15:45:32.016Z,3.65
2019-02-10T15:48:03.262Z,3.53
2019-02-10T15:50:37.027Z,3.47
2019-02-10T15:53:10.908Z,3.44
2019-02-10T15:55:42.181Z,3.37
2019-02-10T15:58:14.911Z,3.33
2019-02-10T16:00:48.052Z,3.27
2019-02-10T16:03:21.900Z,3.18
2019-02-10T16:05:53.987Z,3.05
2019-02-10T16:08:27.043Z,2.99
2019-02-10T16:10:59.178Z,2.91
2019-02-10T16:13:32.115Z,2.87
2019-02-10T16:16:06.118Z,2.84
2019-02-10T16:18:39.006Z,2.72
2019-02-10T16:21:11.068Z,2.63
2019-02-10T16:23:42.365Z,2.58
2019-02-10T16:26:15.001Z,2.50
2019-02-10T16:28:46.288Z,2.46
2019-02-10T16:31:20.282Z,2.43
2019-02-10T16:33:53.139Z,2.30
2019-02-10T16:36:27.164Z,2.23
2019-02-10T16:39:01.531Z,2.18
2019-02-10T16:41:35.186Z,2.15
2019-02-10T16:44:09.263Z,2.10
2019-02-10T16:46:41.546Z,2.04
2019-02-10T16:49:13.164Z,2.00
2019-02-10T16:51:45.438Z,1.96
2019-02-10T16:54:18.278Z,1.94
2019-02-10T16:56:54.183Z,1.94
2019-02-10T16:59:25.900Z,1.89
2019-02-10T17:01:59.396Z,1.88
2019-02-10T17:04:33.313Z,1.88
2019-02-10T17:07:09.126Z,1.84
2019-02-10T17:09:41.683Z,1.83
2019-02-10T17:12:14.410Z,1.78
2019-02-10T17:14:45.756Z,1.77
2019-02-10T17:17:17.118Z,1.77
2019-02-10T17:19:50.439Z,1.75
2019-02-10T17:22:24.003Z,1.75
2019-02-10T17:24:57.418Z,1.72
2019-02-10T17:27:30.529Z,1.67
2019-02-10T17:30:02.474Z,1.68
2019-02-10T17:32:36.563Z,1.67
2019-02-10T17:35:10.848Z,1.67
2019-02-10T17:37:42.227Z,1.64
2019-02-10T17:40:18.496Z,1.62
2019-02-10T17:42:50.659Z,1.60
2019-02-10T17:45:24.496Z,1.60
2019-02-10T17:47:55.946Z,1.57
2019-02-10T17:50:27.285Z,1.56
2019-02-10T17:53:00.613Z,1.65
2019-02-10T17:55:34.604Z,1.66
2019-02-10T17:58:08.661Z,1.66
2019-02-10T18:00:45.553Z,1.68
2019-02-10T18:03:19.752Z,1.74
2019-02-10T18:05:53.775Z,1.76
2019-02-10T18:08:26.617Z,1.80
2019-02-10T18:11:02.349Z,1.82
2019-02-10T18:13:34.614Z,1.86
2019-02-10T18:16:31.933Z,1.85
2019-02-10T18:19:16.915Z,1.85
2019-02-10T18:22:06.478Z,1.87
2019-02-10T18:25:09.136Z,1.82
2019-02-10T18:28:01.215Z,1.91
2019-02-10T18:30:42.804Z,1.91
2019-02-10T18:33:37.740Z,1.87
2019-02-10T18:36:36.100Z,1.86
2019-02-10T18:39:15.519Z,1.91
2019-02-10T18:42:06.598Z,1.92
2019-02-10T18:45:07.316Z,1.92
2019-02-10T18:48:01.091Z,1.94
2019-02-10T18:50:54.119Z,1.94
2019-02-10T18:53:38.230Z,1.96
2019-02-10T18:56:19.625Z,1.93
2019-02-10T18:59:00.348Z,1.97
2019-02-10T19:01:40.583Z,1.96
2019-02-10T19:04:30.600Z,1.98
2019-02-10T19:07:32.839Z,1.97
2019-02-10T19:10:17.476Z,1.99
2019-02-10T19:13:16.021Z,1.96
2019-02-10T19:16:05.644Z,1.97
2019-02-10T19:18:51.529Z,2.03
2019-02-10T19:21:46.435Z,2.02
2019-02-10T19:24:36.945Z,2.03
2019-02-10T19:27:21.795Z,2.07
2019-02-10T19:30:15.976Z,2.10
2019-02-10T19:33:08.061Z,2.12
2019-02-10T19:36:10.044Z,2.11
2019-02-10T19:38:53.393Z,2.10
2019-02-10T19:41:39.769Z,2.12
2019-02-10T19:44:29.267Z,2.14
2019-02-10T19:47:20.982Z,2.17
2019-02-10T19:50:23.571Z,2.19
2019-02-10T19:53:20.331Z,2.15
2019-02-10T19:56:15.950Z,2.14
2019-02-10T19:59:01.115Z,2.17
2019-02-10T20:02:06.159Z,2.22
2019-02-10T20:04:52.549Z,2.36
2019-02-10T20:07:43.372Z,2.24
2019-02-10T20:10:42.068Z,2.17
2019-02-10T20:13:39.316Z,2.20
2019-02-10T20:16:22.835Z,2.19
2019-02-10T20:19:15.885Z,2.22
2019-02-10T20:22:11.349Z,2.18
2019-02-10T20:25:00.425Z,2.21
2019-02-10T20:27:50.760Z,2.19
2019-02-10T20:30:51.239Z,2.22
2019-02-10T20:33:34.931Z,2.25
2019-02-10T20:36:33.406Z,2.33
2019-02-10T20:39:31.911Z,2.43
2019-02-10T20:42:41.552Z,2.36
2019-02-10T20:45:30.943Z,2.36
2019-02-10T20:48:24.072Z,2.33
2019-02-10T20:51:33.393Z,2.34
2019-02-10T20:54:24.131Z,2.36
2019-02-10T20:57:19.161Z,2.70
2019-02-10T21:00:08.981Z,2.82
2019-02-10T21:02:46.717Z,2.98
2019-02-10T21:05:42.014Z,3.12
2019-02-10T21:08:34.248Z,3.01
2019-02-10T21:11:25.574Z,2.89
2019-02-10T21:14:14.515Z,2.76
2019-02-10T21:17:07.881Z,2.78
2019-02-10T21:19:58.130Z,2.73
2019-02-10T21:22:51.223Z,2.78
2019-02-10T21:25:52.591Z,2.79
2019-02-10T21:28:34.746Z,2.83
2019-02-10T21:31:19.866Z,2.71
2019-02-10T21:34:28.494Z,3.01
2019-02-10T21:37:13.370Z,2.81
2019-02-10T21:40:16.646Z,2.75
2019-02-10T21:43:02.896Z,2.76
2019-02-10T21:45:53.286Z,2.74
2019-02-10T21:48:32.606Z,2.75
2019-02-10T21:51:05.653Z,2.79
2019-02-10T21:53:39.708Z,2.83
2019-02-10T21:56:12.651Z,2.87
2019-02-10T21:58:44.135Z,2.89
2019-02-10T22:01:17.704Z,2.92
2019-02-10T22:03:51.835Z,2.93
2019-02-10T22:06:24.794Z,3.01
2019-02-10T22:09:00.398Z,3.06
2019-02-10T22:11:32.694Z,3.19
2019-02-10T22:14:04.052Z,3.22
2019-02-10T22:16:37.885Z,3.25
2019-02-10T22:19:11.757Z,3.28
2019-02-10T22:21:46.177Z,3.32
2019-02-10T22:24:18.926Z,3.31
2019-02-10T22:26:51.811Z,3.32
2019-02-10T22:29:23.707Z,3.32
2019-02-10T22:31:54.967Z,3.33
2019-02-10T22:34:27.753Z,3.41
2019-02-10T22:37:01.670Z,3.41
2019-02-10T22:39:33.031Z,3.45
2019-02-10T22:42:07.296Z,3.48
2019-02-10T22:44:39.814Z,3.55
2019-02-10T22:47:15.334Z,3.58
2019-02-10T22:49:47.835Z,3.59
2019-02-10T22:52:19.100Z,3.73
2019-02-10T22:54:51.154Z,3.76
2019-02-10T22:57:22.797Z,3.90
2019-02-10T22:59:54.048Z,3.90
2019-02-10T23:02:27.881Z,4.04
2019-02-10T23:05:01.898Z,4.25
2019-02-10T23:07:33.207Z,4.37
2019-02-10T23:10:05.932Z,4.70
2019-02-10T23:12:37.882Z,4.70
2019-02-10T23:15:11.715Z,4.70
2019-02-10T23:17:44.170Z,4.83
2019-02-10T23:20:16.230Z,5.02
2019-02-10T23:22:49.402Z,5.01
2019-02-10T23:25:20.844Z,5.02
2019-02-10T23:27:54.828Z,5.00
2019-02-10T23:30:28.639Z,5.11
2019-02-10T23:32:59.878Z,5.30
2019-02-10T23:35:34.595Z,5.10
2019-02-10T23:38:06.990Z,5.02
2019-02-10T23:40:41.335Z,5.04
2019-02-10T23:43:15.607Z,5.24
2019-02-10T23:45:49.197Z,5.49
2019-02-10T23:48:20.435Z,5.60
2019-02-10T23:50:54.959Z,5.68
2019-02-10T23:53:27.978Z,5.78
2019-02-10T23:56:02.787Z,5.79
2019-02-10T23:58:35.138Z,5.86
